sensor_id;sensor_type;location;lat;lon;timestamp;P1;durP1;ratioP1;P2;durP2;ratioP2
46489;SDS011;32204;49.160;8.580;2023-03-23T00:01:12;0.75;;;0.70;;
46489;SDS011;32204;49.160;8.580;2023-03-23T00:03:44;3.00;;;0.75;;
46489;SDS011;32204;49.160;8.580;2023-03-23T00:06:10;0.80;;;0.63;;
46489;SDS011;32204;49.160;8.580;2023-03-23T00:08:41;1.33;;;0.77;;
46489;SDS011;32204;49.160;8.580;2023-03-23T00:11:18;1.10;;;0.70;;
46489;SDS011;32204;49.160;8.580;2023-03-23T00:13:46;1.00;;;0.80;;
46489;SDS011;32204;49.160;8.580;2023-03-23T00:16:16;0.75;;;0.55;;
46489;SDS011;32204;49.160;8.580;2023-03-23T00:18:47;1.55;;;0.60;;
46489;SDS011;32204;49.160;8.580;2023-03-23T00:21:17;2.13;;;0.65;;
46489;SDS011;32204;49.160;8.580;2023-03-23T00:23:44;0.80;;;0.60;;
46489;SDS011;32204;49.160;8.580;2023-03-23T00:26:10;0.50;;;0.50;;
46489;SDS011;32204;49.160;8.580;2023-03-23T00:28:37;1.42;;;0.85;;
46489;SDS011;32204;49.160;8.580;2023-03-23T00:31:04;0.75;;;0.50;;
46489;SDS011;32204;49.160;8.580;2023-03-23T00:33:32;3.00;;;0.60;;
46489;SDS011;32204;49.160;8.580;2023-03-23T00:36:03;1.05;;;0.80;;
46489;SDS011;32204;49.160;8.580;2023-03-23T00:38:30;2.05;;;0.60;;
46489;SDS011;32204;49.160;8.580;2023-03-23T00:40:56;2.38;;;0.80;;
46489;SDS011;32204;49.160;8.580;2023-03-23T00:43:23;2.33;;;0.60;;
46489;SDS011;32204;49.160;8.580;2023-03-23T00:45:53;3.58;;;1.30;;
46489;SDS011;32204;49.160;8.580;2023-03-23T00:48:20;1.33;;;0.80;;
46489;SDS011;32204;49.160;8.580;2023-03-23T00:50:50;0.77;;;0.52;;
46489;SDS011;32204;49.160;8.580;2023-03-23T00:53:16;1.13;;;0.80;;
46489;SDS011;32204;49.160;8.580;2023-03-23T00:55:43;1.45;;;0.90;;
46489;SDS011;32204;49.160;8.580;2023-03-23T00:58:10;2.55;;;0.90;;
46489;SDS011;32204;49.160;8.580;2023-03-23T01:00:37;1.75;;;0.90;;
46489;SDS011;32204;49.160;8.580;2023-03-23T01:03:03;1.20;;;1.00;;
46489;SDS011;32204;49.160;8.580;2023-03-23T01:05:29;0.80;;;0.80;;
46489;SDS011;32204;49.160;8.580;2023-03-23T01:07:59;3.92;;;0.95;;
46489;SDS011;32204;49.160;8.580;2023-03-23T01:10:24;2.55;;;0.93;;
46489;SDS011;32204;49.160;8.580;2023-03-23T01:12:51;1.48;;;0.80;;
46489;SDS011;32204;49.160;8.580;2023-03-23T01:15:17;3.15;;;1.02;;
46489;SDS011;32204;49.160;8.580;2023-03-23T01:17:44;1.42;;;0.80;;
46489;SDS011;32204;49.160;8.580;2023-03-23T01:20:11;1.38;;;1.10;;
46489;SDS011;32204;49.160;8.580;2023-03-23T01:22:38;2.22;;;0.90;;
46489;SDS011;32204;49.160;8.580;2023-03-23T01:25:04;5.20;;;1.17;;
46489;SDS011;32204;49.160;8.580;2023-03-23T01:27:31;2.20;;;0.82;;
46489;SDS011;32204;49.160;8.580;2023-03-23T01:29:57;0.82;;;0.80;;
46489;SDS011;32204;49.160;8.580;2023-03-23T01:32:22;1.85;;;0.82;;
46489;SDS011;32204;49.160;8.580;2023-03-23T01:34:48;1.10;;;0.80;;
46489;SDS011;32204;49.160;8.580;2023-03-23T01:37:13;2.15;;;1.13;;
46489;SDS011;32204;49.160;8.580;2023-03-23T01:39:40;3.05;;;1.33;;
46489;SDS011;32204;49.160;8.580;2023-03-23T01:42:07;2.03;;;1.45;;
46489;SDS011;32204;49.160;8.580;2023-03-23T01:47:00;1.63;;;1.17;;
46489;SDS011;32204;49.160;8.580;2023-03-23T01:49:44;2.13;;;1.52;;
46489;SDS011;32204;49.160;8.580;2023-03-23T01:52:17;2.70;;;1.25;;
46489;SDS011;32204;49.160;8.580;2023-03-23T01:54:48;3.63;;;1.38;;
46489;SDS011;32204;49.160;8.580;2023-03-23T01:59:45;1.80;;;0.98;;
46489;SDS011;32204;49.160;8.580;2023-03-23T02:02:14;1.08;;;0.95;;
46489;SDS011;32204;49.160;8.580;2023-03-23T02:04:41;3.35;;;0.90;;
46489;SDS011;32204;49.160;8.580;2023-03-23T02:07:07;1.58;;;0.90;;
46489;SDS011;32204;49.160;8.580;2023-03-23T02:09:34;1.77;;;1.30;;
46489;SDS011;32204;49.160;8.580;2023-03-23T02:12:00;1.92;;;0.95;;
46489;SDS011;32204;49.160;8.580;2023-03-23T02:14:26;3.97;;;1.02;;
46489;SDS011;32204;49.160;8.580;2023-03-23T02:17:09;1.83;;;0.68;;
46489;SDS011;32204;49.160;8.580;2023-03-23T02:30:58;1.95;;;0.80;;
46489;SDS011;32204;49.160;8.580;2023-03-23T02:34:00;1.48;;;0.90;;
46489;SDS011;32204;49.160;8.580;2023-03-23T02:36:39;2.58;;;1.00;;
46489;SDS011;32204;49.160;8.580;2023-03-23T02:41:44;2.72;;;0.70;;
46489;SDS011;32204;49.160;8.580;2023-03-23T02:44:13;3.53;;;1.23;;
46489;SDS011;32204;49.160;8.580;2023-03-23T02:46:40;2.75;;;0.93;;
46489;SDS011;32204;49.160;8.580;2023-03-23T02:49:08;1.02;;;0.90;;
46489;SDS011;32204;49.160;8.580;2023-03-23T02:51:36;1.98;;;0.85;;
46489;SDS011;32204;49.160;8.580;2023-03-23T02:54:03;1.02;;;0.75;;
46489;SDS011;32204;49.160;8.580;2023-03-23T02:56:30;3.08;;;1.30;;
46489;SDS011;32204;49.160;8.580;2023-03-23T02:58:58;1.83;;;1.10;;
46489;SDS011;32204;49.160;8.580;2023-03-23T03:04:01;2.15;;;1.20;;
46489;SDS011;32204;49.160;8.580;2023-03-23T03:09:53;2.80;;;1.00;;
46489;SDS011;32204;49.160;8.580;2023-03-23T03:12:32;1.60;;;1.20;;
46489;SDS011;32204;49.160;8.580;2023-03-23T03:18:20;0.90;;;0.80;;
46489;SDS011;32204;49.160;8.580;2023-03-23T03:20:50;1.92;;;1.02;;
46489;SDS011;32204;49.160;8.580;2023-03-23T03:23:21;1.20;;;1.10;;
46489;SDS011;32204;49.160;8.580;2023-03-23T03:25:49;0.98;;;0.70;;
46489;SDS011;32204;49.160;8.580;2023-03-23T03:28:16;1.10;;;1.00;;
46489;SDS011;32204;49.160;8.580;2023-03-23T03:30:46;4.15;;;1.30;;
46489;SDS011;32204;49.160;8.580;2023-03-23T03:33:16;2.33;;;1.05;;
46489;SDS011;32204;49.160;8.580;2023-03-23T03:38:11;1.45;;;1.17;;
46489;SDS011;32204;49.160;8.580;2023-03-23T03:40:37;1.95;;;1.10;;
46489;SDS011;32204;49.160;8.580;2023-03-23T03:43:03;1.45;;;0.98;;
46489;SDS011;32204;49.160;8.580;2023-03-23T03:45:30;1.67;;;0.93;;
46489;SDS011;32204;49.160;8.580;2023-03-23T03:47:56;3.58;;;1.27;;
46489;SDS011;32204;49.160;8.580;2023-03-23T03:50:22;1.25;;;0.88;;
46489;SDS011;32204;49.160;8.580;2023-03-23T03:52:48;4.47;;;1.05;;
46489;SDS011;32204;49.160;8.580;2023-03-23T03:55:14;2.80;;;1.50;;
46489;SDS011;32204;49.160;8.580;2023-03-23T03:57:39;1.40;;;1.10;;
46489;SDS011;32204;49.160;8.580;2023-03-23T04:00:07;3.13;;;1.23;;
46489;SDS011;32204;49.160;8.580;2023-03-23T04:02:40;1.83;;;1.50;;
46489;SDS011;32204;49.160;8.580;2023-03-23T04:05:07;1.58;;;1.02;;
46489;SDS011;32204;49.160;8.580;2023-03-23T04:07:35;1.48;;;1.35;;
46489;SDS011;32204;49.160;8.580;2023-03-23T04:10:03;5.38;;;1.63;;
46489;SDS011;32204;49.160;8.580;2023-03-23T04:12:30;2.05;;;1.17;;
46489;SDS011;32204;49.160;8.580;2023-03-23T04:14:57;1.77;;;0.98;;
46489;SDS011;32204;49.160;8.580;2023-03-23T04:17:23;3.03;;;1.63;;
46489;SDS011;32204;49.160;8.580;2023-03-23T04:19:51;1.88;;;0.90;;
46489;SDS011;32204;49.160;8.580;2023-03-23T04:22:17;2.10;;;1.10;;
46489;SDS011;32204;49.160;8.580;2023-03-23T04:24:42;2.03;;;1.38;;
46489;SDS011;32204;49.160;8.580;2023-03-23T04:27:08;1.30;;;1.20;;
46489;SDS011;32204;49.160;8.580;2023-03-23T04:29:34;1.63;;;1.20;;
46489;SDS011;32204;49.160;8.580;2023-03-23T04:31:59;2.70;;;1.13;;
46489;SDS011;32204;49.160;8.580;2023-03-23T04:34:26;2.22;;;1.40;;
46489;SDS011;32204;49.160;8.580;2023-03-23T04:36:52;2.47;;;1.50;;
46489;SDS011;32204;49.160;8.580;2023-03-23T04:39:18;3.15;;;1.48;;
46489;SDS011;32204;49.160;8.580;2023-03-23T04:41:44;1.60;;;1.05;;
46489;SDS011;32204;49.160;8.580;2023-03-23T04:44:10;6.40;;;1.75;;
46489;SDS011;32204;49.160;8.580;2023-03-23T04:46:42;1.83;;;1.02;;
46489;SDS011;32204;49.160;8.580;2023-03-23T04:49:10;3.10;;;1.25;;
46489;SDS011;32204;49.160;8.580;2023-03-23T04:51:36;2.17;;;1.02;;
46489;SDS011;32204;49.160;8.580;2023-03-23T04:54:04;1.40;;;1.10;;
46489;SDS011;32204;49.160;8.580;2023-03-23T04:56:29;1.85;;;1.23;;
46489;SDS011;32204;49.160;8.580;2023-03-23T04:58:55;2.55;;;1.08;;
46489;SDS011;32204;49.160;8.580;2023-03-23T05:01:20;2.47;;;1.00;;
46489;SDS011;32204;49.160;8.580;2023-03-23T05:03:46;2.70;;;1.33;;
46489;SDS011;32204;49.160;8.580;2023-03-23T05:06:12;2.08;;;1.33;;
46489;SDS011;32204;49.160;8.580;2023-03-23T05:08:38;1.60;;;1.30;;
46489;SDS011;32204;49.160;8.580;2023-03-23T05:11:04;1.60;;;1.17;;
46489;SDS011;32204;49.160;8.580;2023-03-23T05:13:31;2.72;;;1.30;;
46489;SDS011;32204;49.160;8.580;2023-03-23T05:15:57;1.73;;;1.30;;
46489;SDS011;32204;49.160;8.580;2023-03-23T05:18:27;2.42;;;1.55;;
46489;SDS011;32204;49.160;8.580;2023-03-23T05:20:54;3.60;;;1.25;;
46489;SDS011;32204;49.160;8.580;2023-03-23T05:23:19;3.00;;;1.30;;
46489;SDS011;32204;49.160;8.580;2023-03-23T05:25:53;1.88;;;0.88;;
46489;SDS011;32204;49.160;8.580;2023-03-23T05:28:19;2.47;;;1.70;;
46489;SDS011;32204;49.160;8.580;2023-03-23T05:30:46;2.20;;;1.10;;
46489;SDS011;32204;49.160;8.580;2023-03-23T05:33:12;2.42;;;1.30;;
46489;SDS011;32204;49.160;8.580;2023-03-23T05:35:38;1.67;;;1.13;;
46489;SDS011;32204;49.160;8.580;2023-03-23T05:38:04;2.35;;;1.50;;
46489;SDS011;32204;49.160;8.580;2023-03-23T05:40:30;2.25;;;1.20;;
46489;SDS011;32204;49.160;8.580;2023-03-23T05:42:55;2.83;;;1.38;;
46489;SDS011;32204;49.160;8.580;2023-03-23T05:45:24;2.45;;;1.13;;
46489;SDS011;32204;49.160;8.580;2023-03-23T05:47:51;1.38;;;1.10;;
46489;SDS011;32204;49.160;8.580;2023-03-23T05:50:16;1.35;;;1.25;;
46489;SDS011;32204;49.160;8.580;2023-03-23T05:52:42;1.52;;;0.88;;
46489;SDS011;32204;49.160;8.580;2023-03-23T05:55:08;2.00;;;1.15;;
46489;SDS011;32204;49.160;8.580;2023-03-23T05:57:34;2.45;;;1.00;;
46489;SDS011;32204;49.160;8.580;2023-03-23T06:00:00;3.22;;;1.25;;
46489;SDS011;32204;49.160;8.580;2023-03-23T06:02:36;2.08;;;1.42;;
46489;SDS011;32204;49.160;8.580;2023-03-23T06:05:02;1.00;;;0.90;;
46489;SDS011;32204;49.160;8.580;2023-03-23T06:07:28;3.80;;;1.70;;
46489;SDS011;32204;49.160;8.580;2023-03-23T06:09:54;1.95;;;1.20;;
46489;SDS011;32204;49.160;8.580;2023-03-23T06:12:19;1.95;;;1.10;;
46489;SDS011;32204;49.160;8.580;2023-03-23T06:14:48;1.20;;;0.93;;
46489;SDS011;32204;49.160;8.580;2023-03-23T06:17:14;1.65;;;1.20;;
46489;SDS011;32204;49.160;8.580;2023-03-23T06:19:42;1.13;;;1.02;;
46489;SDS011;32204;49.160;8.580;2023-03-23T06:22:08;1.77;;;1.20;;
46489;SDS011;32204;49.160;8.580;2023-03-23T06:24:34;3.20;;;1.17;;
46489;SDS011;32204;49.160;8.580;2023-03-23T06:27:00;2.00;;;1.40;;
46489;SDS011;32204;49.160;8.580;2023-03-23T06:29:26;1.90;;;1.02;;
46489;SDS011;32204;49.160;8.580;2023-03-23T06:31:52;2.03;;;1.38;;
46489;SDS011;32204;49.160;8.580;2023-03-23T06:34:22;2.30;;;1.40;;
46489;SDS011;32204;49.160;8.580;2023-03-23T06:36:48;2.78;;;1.48;;
46489;SDS011;32204;49.160;8.580;2023-03-23T06:39:13;1.88;;;1.30;;
46489;SDS011;32204;49.160;8.580;2023-03-23T06:41:39;1.63;;;1.35;;
46489;SDS011;32204;49.160;8.580;2023-03-23T06:44:05;3.33;;;1.60;;
46489;SDS011;32204;49.160;8.580;2023-03-23T06:46:31;2.80;;;1.45;;
46489;SDS011;32204;49.160;8.580;2023-03-23T06:48:57;2.88;;;1.60;;
46489;SDS011;32204;49.160;8.580;2023-03-23T06:51:23;2.15;;;1.35;;
46489;SDS011;32204;49.160;8.580;2023-03-23T06:53:49;3.15;;;1.90;;
46489;SDS011;32204;49.160;8.580;2023-03-23T06:56:14;2.00;;;1.80;;
46489;SDS011;32204;49.160;8.580;2023-03-23T06:58:40;2.88;;;2.03;;
46489;SDS011;32204;49.160;8.580;2023-03-23T07:01:10;4.03;;;1.77;;
46489;SDS011;32204;49.160;8.580;2023-03-23T07:03:36;3.00;;;1.88;;
46489;SDS011;32204;49.160;8.580;2023-03-23T07:06:02;4.82;;;1.98;;
46489;SDS011;32204;49.160;8.580;2023-03-23T07:08:28;3.38;;;1.63;;
46489;SDS011;32204;49.160;8.580;2023-03-23T07:10:55;3.00;;;1.85;;
46489;SDS011;32204;49.160;8.580;2023-03-23T07:13:21;2.95;;;1.58;;
46489;SDS011;32204;49.160;8.580;2023-03-23T07:15:47;2.72;;;1.63;;
46489;SDS011;32204;49.160;8.580;2023-03-23T07:18:13;3.88;;;1.55;;
46489;SDS011;32204;49.160;8.580;2023-03-23T07:20:39;4.55;;;1.65;;
46489;SDS011;32204;49.160;8.580;2023-03-23T07:23:05;3.88;;;1.70;;
46489;SDS011;32204;49.160;8.580;2023-03-23T07:25:31;2.55;;;1.50;;
46489;SDS011;32204;49.160;8.580;2023-03-23T07:27:58;1.60;;;1.20;;
46489;SDS011;32204;49.160;8.580;2023-03-23T07:30:25;1.27;;;1.05;;
46489;SDS011;32204;49.160;8.580;2023-03-23T07:32:51;1.15;;;1.00;;
46489;SDS011;32204;49.160;8.580;2023-03-23T07:35:17;2.25;;;0.90;;
46489;SDS011;32204;49.160;8.580;2023-03-23T07:37:42;0.90;;;0.70;;
46489;SDS011;32204;49.160;8.580;2023-03-23T07:40:08;2.50;;;0.90;;
46489;SDS011;32204;49.160;8.580;2023-03-23T07:42:41;1.23;;;1.13;;
46489;SDS011;32204;49.160;8.580;2023-03-23T07:45:08;1.27;;;0.90;;
46489;SDS011;32204;49.160;8.580;2023-03-23T07:47:36;1.08;;;0.85;;
46489;SDS011;32204;49.160;8.580;2023-03-23T07:50:01;1.30;;;1.00;;
46489;SDS011;32204;49.160;8.580;2023-03-23T07:52:27;1.13;;;0.77;;
46489;SDS011;32204;49.160;8.580;2023-03-23T07:54:53;1.80;;;1.00;;
46489;SDS011;32204;49.160;8.580;2023-03-23T07:57:18;3.17;;;1.00;;
46489;SDS011;32204;49.160;8.580;2023-03-23T07:59:44;1.60;;;0.85;;
46489;SDS011;32204;49.160;8.580;2023-03-23T08:02:11;2.35;;;0.80;;
46489;SDS011;32204;49.160;8.580;2023-03-23T08:04:36;2.28;;;0.70;;
46489;SDS011;32204;49.160;8.580;2023-03-23T08:07:02;2.47;;;1.10;;
46489;SDS011;32204;49.160;8.580;2023-03-23T08:09:29;3.42;;;1.50;;
46489;SDS011;32204;49.160;8.580;2023-03-23T08:11:55;3.95;;;1.75;;
46489;SDS011;32204;49.160;8.580;2023-03-23T08:14:21;3.00;;;1.63;;
46489;SDS011;32204;49.160;8.580;2023-03-23T08:16:47;2.38;;;1.90;;
46489;SDS011;32204;49.160;8.580;2023-03-23T08:19:13;4.15;;;2.05;;
46489;SDS011;32204;49.160;8.580;2023-03-23T08:21:39;9.85;;;2.63;;
46489;SDS011;32204;49.160;8.580;2023-03-23T08:24:04;3.58;;;1.92;;
46489;SDS011;32204;49.160;8.580;2023-03-23T08:26:31;4.25;;;2.35;;
46489;SDS011;32204;49.160;8.580;2023-03-23T08:28:57;5.55;;;2.25;;
46489;SDS011;32204;49.160;8.580;2023-03-23T08:31:22;3.50;;;2.60;;
46489;SDS011;32204;49.160;8.580;2023-03-23T08:33:48;2.95;;;2.15;;
46489;SDS011;32204;49.160;8.580;2023-03-23T08:36:14;3.50;;;1.80;;
46489;SDS011;32204;49.160;8.580;2023-03-23T08:38:40;3.45;;;2.42;;
46489;SDS011;32204;49.160;8.580;2023-03-23T08:41:06;8.07;;;2.75;;
46489;SDS011;32204;49.160;8.580;2023-03-23T08:43:32;6.80;;;2.03;;
46489;SDS011;32204;49.160;8.580;2023-03-23T08:46:02;3.30;;;2.03;;
46489;SDS011;32204;49.160;8.580;2023-03-23T08:48:32;2.83;;;2.22;;
46489;SDS011;32204;49.160;8.580;2023-03-23T08:51:00;3.42;;;2.55;;
46489;SDS011;32204;49.160;8.580;2023-03-23T08:53:26;4.55;;;1.58;;
46489;SDS011;32204;49.160;8.580;2023-03-23T08:55:55;3.45;;;1.45;;
46489;SDS011;32204;49.160;8.580;2023-03-23T08:58:21;3.72;;;1.98;;
46489;SDS011;32204;49.160;8.580;2023-03-23T09:00:47;2.55;;;1.83;;
46489;SDS011;32204;49.160;8.580;2023-03-23T09:03:13;2.42;;;1.60;;
46489;SDS011;32204;49.160;8.580;2023-03-23T09:05:40;2.85;;;1.48;;
46489;SDS011;32204;49.160;8.580;2023-03-23T09:08:10;4.35;;;2.03;;
46489;SDS011;32204;49.160;8.580;2023-03-23T09:10:37;4.13;;;1.60;;
46489;SDS011;32204;49.160;8.580;2023-03-23T09:13:04;2.15;;;1.48;;
46489;SDS011;32204;49.160;8.580;2023-03-23T09:15:30;2.13;;;1.00;;
46489;SDS011;32204;49.160;8.580;2023-03-23T09:17:57;3.47;;;1.08;;
46489;SDS011;32204;49.160;8.580;2023-03-23T09:20:24;3.90;;;1.15;;
46489;SDS011;32204;49.160;8.580;2023-03-23T09:22:52;0.90;;;0.90;;
46489;SDS011;32204;49.160;8.580;2023-03-23T09:25:19;1.35;;;1.02;;
46489;SDS011;32204;49.160;8.580;2023-03-23T09:27:50;1.83;;;1.20;;
46489;SDS011;32204;49.160;8.580;2023-03-23T09:30:18;2.10;;;1.05;;
46489;SDS011;32204;49.160;8.580;2023-03-23T09:32:45;1.58;;;0.98;;
46489;SDS011;32204;49.160;8.580;2023-03-23T09:35:13;1.70;;;1.00;;
46489;SDS011;32204;49.160;8.580;2023-03-23T09:37:41;3.63;;;0.88;;
46489;SDS011;32204;49.160;8.580;2023-03-23T09:40:15;1.30;;;1.10;;
46489;SDS011;32204;49.160;8.580;2023-03-23T09:42:53;2.40;;;1.10;;
46489;SDS011;32204;49.160;8.580;2023-03-23T09:54:04;3.42;;;0.90;;
46489;SDS011;32204;49.160;8.580;2023-03-23T09:56:51;1.00;;;0.80;;
46489;SDS011;32204;49.160;8.580;2023-03-23T10:02:15;0.70;;;0.70;;
46489;SDS011;32204;49.160;8.580;2023-03-23T10:04:56;2.00;;;0.73;;
46489;SDS011;32204;49.160;8.580;2023-03-23T10:07:32;2.90;;;0.82;;
46489;SDS011;32204;49.160;8.580;2023-03-23T10:09:59;2.95;;;0.60;;
46489;SDS011;32204;49.160;8.580;2023-03-23T10:12:33;1.83;;;0.80;;
46489;SDS011;32204;49.160;8.580;2023-03-23T10:20:48;2.45;;;0.90;;
46489;SDS011;32204;49.160;8.580;2023-03-23T10:31:46;1.85;;;1.02;;
46489;SDS011;32204;49.160;8.580;2023-03-23T10:34:22;1.10;;;0.77;;
46489;SDS011;32204;49.160;8.580;2023-03-23T10:42:23;1.58;;;1.00;;
46489;SDS011;32204;49.160;8.580;2023-03-23T10:44:51;1.40;;;0.95;;
46489;SDS011;32204;49.160;8.580;2023-03-23T10:47:17;0.98;;;0.88;;
46489;SDS011;32204;49.160;8.580;2023-03-23T10:49:50;1.88;;;1.30;;
46489;SDS011;32204;49.160;8.580;2023-03-23T10:54:54;2.42;;;1.35;;
46489;SDS011;32204;49.160;8.580;2023-03-23T10:57:29;1.45;;;1.00;;
46489;SDS011;32204;49.160;8.580;2023-03-23T10:59:59;2.60;;;1.33;;
46489;SDS011;32204;49.160;8.580;2023-03-23T11:02:42;1.45;;;1.13;;
46489;SDS011;32204;49.160;8.580;2023-03-23T11:05:15;1.88;;;1.33;;
46489;SDS011;32204;49.160;8.580;2023-03-23T11:08:03;1.75;;;1.23;;
46489;SDS011;32204;49.160;8.580;2023-03-23T11:10:39;1.10;;;0.90;;
46489;SDS011;32204;49.160;8.580;2023-03-23T11:13:14;1.33;;;0.95;;
46489;SDS011;32204;49.160;8.580;2023-03-23T11:15:41;2.30;;;1.30;;
46489;SDS011;32204;49.160;8.580;2023-03-23T11:18:10;0.85;;;0.77;;
46489;SDS011;32204;49.160;8.580;2023-03-23T11:23:09;0.98;;;0.80;;
46489;SDS011;32204;49.160;8.580;2023-03-23T11:28:20;1.23;;;0.50;;
46489;SDS011;32204;49.160;8.580;2023-03-23T11:30:46;1.48;;;1.27;;
46489;SDS011;32204;49.160;8.580;2023-03-23T11:33:12;1.25;;;0.90;;
46489;SDS011;32204;49.160;8.580;2023-03-23T11:35:42;2.00;;;1.30;;
46489;SDS011;32204;49.160;8.580;2023-03-23T11:38:11;2.65;;;1.33;;
46489;SDS011;32204;49.160;8.580;2023-03-23T11:40:47;0.90;;;0.90;;
46489;SDS011;32204;49.160;8.580;2023-03-23T11:43:14;1.92;;;1.20;;
46489;SDS011;32204;49.160;8.580;2023-03-23T11:46:05;2.08;;;0.90;;
46489;SDS011;32204;49.160;8.580;2023-03-23T11:48:45;1.60;;;1.10;;
46489;SDS011;32204;49.160;8.580;2023-03-23T11:51:28;1.60;;;1.23;;
46489;SDS011;32204;49.160;8.580;2023-03-23T11:56:28;2.08;;;1.15;;
46489;SDS011;32204;49.160;8.580;2023-03-23T11:58:58;3.13;;;1.60;;
46489;SDS011;32204;49.160;8.580;2023-03-23T12:04:17;2.17;;;1.35;;
46489;SDS011;32204;49.160;8.580;2023-03-23T12:06:54;7.82;;;3.90;;
46489;SDS011;32204;49.160;8.580;2023-03-23T12:09:36;3.50;;;2.40;;
46489;SDS011;32204;49.160;8.580;2023-03-23T12:20:27;2.30;;;1.10;;
46489;SDS011;32204;49.160;8.580;2023-03-23T12:25:49;1.25;;;0.90;;
46489;SDS011;32204;49.160;8.580;2023-03-23T12:28:38;1.60;;;1.13;;
46489;SDS011;32204;49.160;8.580;2023-03-23T12:31:15;1.35;;;1.20;;
46489;SDS011;32204;49.160;8.580;2023-03-23T12:36:43;1.67;;;1.00;;
46489;SDS011;32204;49.160;8.580;2023-03-23T12:39:33;1.38;;;0.80;;
46489;SDS011;32204;49.160;8.580;2023-03-23T12:44:53;1.77;;;0.90;;
46489;SDS011;32204;49.160;8.580;2023-03-23T12:47:38;1.83;;;1.13;;
46489;SDS011;32204;49.160;8.580;2023-03-23T12:50:13;1.30;;;0.98;;
46489;SDS011;32204;49.160;8.580;2023-03-23T12:52:46;3.33;;;1.00;;
46489;SDS011;32204;49.160;8.580;2023-03-23T12:58:37;2.17;;;1.10;;
46489;SDS011;32204;49.160;8.580;2023-03-23T13:01:10;2.17;;;0.95;;
46489;SDS011;32204;49.160;8.580;2023-03-23T13:06:47;3.30;;;1.27;;
46489;SDS011;32204;49.160;8.580;2023-03-23T13:09:22;1.38;;;1.10;;
46489;SDS011;32204;49.160;8.580;2023-03-23T13:11:55;2.85;;;1.40;;
46489;SDS011;32204;49.160;8.580;2023-03-23T13:23:14;1.15;;;1.05;;
46489;SDS011;32204;49.160;8.580;2023-03-23T13:25:49;1.58;;;1.00;;
46489;SDS011;32204;49.160;8.580;2023-03-23T13:28:29;3.33;;;2.07;;
46489;SDS011;32204;49.160;8.580;2023-03-23T13:33:32;2.95;;;2.20;;
46489;SDS011;32204;49.160;8.580;2023-03-23T13:36:04;3.40;;;1.10;;
46489;SDS011;32204;49.160;8.580;2023-03-23T13:38:36;3.88;;;1.63;;
46489;SDS011;32204;49.160;8.580;2023-03-23T13:41:06;4.03;;;3.40;;
46489;SDS011;32204;49.160;8.580;2023-03-23T13:43:35;1.52;;;1.17;;
46489;SDS011;32204;49.160;8.580;2023-03-23T13:46:12;2.53;;;1.25;;
46489;SDS011;32204;49.160;8.580;2023-03-23T13:48:43;1.20;;;1.10;;
46489;SDS011;32204;49.160;8.580;2023-03-23T13:56:54;1.23;;;1.13;;
46489;SDS011;32204;49.160;8.580;2023-03-23T13:59:28;1.35;;;1.00;;
46489;SDS011;32204;49.160;8.580;2023-03-23T14:01:57;2.78;;;1.05;;
46489;SDS011;32204;49.160;8.580;2023-03-23T14:10:34;1.70;;;1.25;;
46489;SDS011;32204;49.160;8.580;2023-03-23T14:13:06;1.90;;;1.08;;
46489;SDS011;32204;49.160;8.580;2023-03-23T14:15:55;1.95;;;1.27;;
46489;SDS011;32204;49.160;8.580;2023-03-23T14:18:23;0.95;;;0.80;;
46489;SDS011;32204;49.160;8.580;2023-03-23T14:20:54;1.67;;;0.98;;
46489;SDS011;32204;49.160;8.580;2023-03-23T14:23:22;2.63;;;0.93;;
46489;SDS011;32204;49.160;8.580;2023-03-23T14:25:55;1.02;;;0.90;;
46489;SDS011;32204;49.160;8.580;2023-03-23T14:28:30;1.80;;;0.90;;
46489;SDS011;32204;49.160;8.580;2023-03-23T14:30:57;2.03;;;0.75;;
46489;SDS011;32204;49.160;8.580;2023-03-23T14:33:24;1.60;;;1.05;;
46489;SDS011;32204;49.160;8.580;2023-03-23T14:35:52;1.30;;;1.08;;
46489;SDS011;32204;49.160;8.580;2023-03-23T14:38:19;2.05;;;1.15;;
46489;SDS011;32204;49.160;8.580;2023-03-23T14:40:51;2.85;;;0.90;;
46489;SDS011;32204;49.160;8.580;2023-03-23T14:43:19;2.58;;;1.00;;
46489;SDS011;32204;49.160;8.580;2023-03-23T14:45:49;3.00;;;1.10;;
46489;SDS011;32204;49.160;8.580;2023-03-23T14:48:17;2.60;;;1.17;;
46489;SDS011;32204;49.160;8.580;2023-03-23T14:50:48;2.45;;;0.90;;
46489;SDS011;32204;49.160;8.580;2023-03-23T14:53:22;2.58;;;1.25;;
46489;SDS011;32204;49.160;8.580;2023-03-23T14:55:59;1.73;;;0.82;;
46489;SDS011;32204;49.160;8.580;2023-03-23T14:58:27;1.17;;;1.08;;
46489;SDS011;32204;49.160;8.580;2023-03-23T15:00:58;2.72;;;2.33;;
46489;SDS011;32204;49.160;8.580;2023-03-23T15:03:27;7.85;;;5.85;;
46489;SDS011;32204;49.160;8.580;2023-03-23T15:05:57;2.13;;;1.73;;
46489;SDS011;32204;49.160;8.580;2023-03-23T15:08:26;2.38;;;1.65;;
46489;SDS011;32204;49.160;8.580;2023-03-23T15:11:12;1.98;;;1.30;;
46489;SDS011;32204;49.160;8.580;2023-03-23T15:13:46;4.85;;;3.45;;
46489;SDS011;32204;49.160;8.580;2023-03-23T15:16:18;8.93;;;5.55;;
46489;SDS011;32204;49.160;8.580;2023-03-23T15:19:05;4.65;;;2.80;;
46489;SDS011;32204;49.160;8.580;2023-03-23T15:21:47;1.20;;;1.10;;
46489;SDS011;32204;49.160;8.580;2023-03-23T15:27:15;1.45;;;1.08;;
46489;SDS011;32204;49.160;8.580;2023-03-23T15:29:54;1.33;;;1.00;;
46489;SDS011;32204;49.160;8.580;2023-03-23T15:32:37;1.20;;;1.10;;
46489;SDS011;32204;49.160;8.580;2023-03-23T15:35:11;2.25;;;1.67;;
46489;SDS011;32204;49.160;8.580;2023-03-23T15:37:43;2.47;;;1.60;;
46489;SDS011;32204;49.160;8.580;2023-03-23T15:40:14;2.90;;;2.10;;
46489;SDS011;32204;49.160;8.580;2023-03-23T15:42:44;3.08;;;1.73;;
46489;SDS011;32204;49.160;8.580;2023-03-23T15:47:38;3.63;;;1.63;;
46489;SDS011;32204;49.160;8.580;2023-03-23T15:50:11;2.58;;;1.38;;
46489;SDS011;32204;49.160;8.580;2023-03-23T15:52:46;2.67;;;1.40;;
46489;SDS011;32204;49.160;8.580;2023-03-23T15:55:20;2.85;;;1.50;;
46489;SDS011;32204;49.160;8.580;2023-03-23T15:57:48;1.35;;;1.25;;
46489;SDS011;32204;49.160;8.580;2023-03-23T16:00:15;4.57;;;1.70;;
46489;SDS011;32204;49.160;8.580;2023-03-23T16:02:42;2.17;;;1.10;;
46489;SDS011;32204;49.160;8.580;2023-03-23T16:05:10;1.80;;;1.40;;
46489;SDS011;32204;49.160;8.580;2023-03-23T16:07:37;1.85;;;1.65;;
46489;SDS011;32204;49.160;8.580;2023-03-23T16:10:03;3.33;;;1.50;;
46489;SDS011;32204;49.160;8.580;2023-03-23T16:12:30;2.80;;;1.67;;
46489;SDS011;32204;49.160;8.580;2023-03-23T16:14:55;3.80;;;2.05;;
46489;SDS011;32204;49.160;8.580;2023-03-23T16:17:21;5.25;;;2.30;;
46489;SDS011;32204;49.160;8.580;2023-03-23T16:19:47;4.28;;;1.58;;
46489;SDS011;32204;49.160;8.580;2023-03-23T16:22:12;3.20;;;1.75;;
46489;SDS011;32204;49.160;8.580;2023-03-23T16:24:38;1.50;;;1.10;;
46489;SDS011;32204;49.160;8.580;2023-03-23T16:27:04;2.30;;;1.73;;
46489;SDS011;32204;49.160;8.580;2023-03-23T16:29:30;3.42;;;1.92;;
46489;SDS011;32204;49.160;8.580;2023-03-23T16:31:55;3.58;;;1.67;;
46489;SDS011;32204;49.160;8.580;2023-03-23T16:34:21;5.03;;;2.92;;
46489;SDS011;32204;49.160;8.580;2023-03-23T16:36:47;4.90;;;3.67;;
46489;SDS011;32204;49.160;8.580;2023-03-23T16:39:12;4.90;;;4.20;;
46489;SDS011;32204;49.160;8.580;2023-03-23T16:41:39;3.95;;;2.70;;
46489;SDS011;32204;49.160;8.580;2023-03-23T16:44:05;4.47;;;3.08;;
46489;SDS011;32204;49.160;8.580;2023-03-23T16:46:31;5.93;;;2.97;;
46489;SDS011;32204;49.160;8.580;2023-03-23T16:48:57;4.45;;;3.63;;
46489;SDS011;32204;49.160;8.580;2023-03-23T16:51:22;5.63;;;4.18;;
46489;SDS011;32204;49.160;8.580;2023-03-23T16:53:48;5.22;;;4.03;;
46489;SDS011;32204;49.160;8.580;2023-03-23T16:56:13;4.07;;;3.65;;
46489;SDS011;32204;49.160;8.580;2023-03-23T16:58:39;4.75;;;4.20;;
46489;SDS011;32204;49.160;8.580;2023-03-23T17:01:06;4.63;;;3.53;;
46489;SDS011;32204;49.160;8.580;2023-03-23T17:03:32;6.20;;;4.65;;
46489;SDS011;32204;49.160;8.580;2023-03-23T17:05:58;3.95;;;3.45;;